createdAt,value
2022-11-03T00:00:00.387Z,23.00
2022-11-03T00:10:01.998Z,22.75
2022-11-03T00:20:03.864Z,20.40
2022-11-03T00:30:07.013Z,27.83
2022-11-03T00:50:12.752Z,17.77
2022-11-03T01:00:15.898Z,22.00
2022-11-03T01:10:22.902Z,20.27
2022-11-03T01:20:25.552Z,22.50
2022-11-03T01:30:27.176Z,24.93
2022-11-03T01:40:30.908Z,22.73
2022-11-03T01:50:32.689Z,18.95
2022-11-03T02:11:43.810Z,18.10
2022-11-03T02:21:55.636Z,18.07
2022-11-03T02:32:08.276Z,17.08
2022-11-03T02:42:12.747Z,29.27
2022-11-03T02:52:36.014Z,24.27
2022-11-03T03:02:53.140Z,20.73
2022-11-03T03:12:58.877Z,18.17
2022-11-03T03:23:19.225Z,18.05
2022-11-03T03:43:31.560Z,22.00
2022-11-03T03:53:33.218Z,22.98
2022-11-03T04:03:34.928Z,22.00
2022-11-03T04:13:56.264Z,31.33
2022-11-03T04:24:00.314Z,26.83
2022-11-03T04:34:10.367Z,20.75
2022-11-03T04:44:16.818Z,23.40
2022-11-03T04:54:23.609Z,21.85
2022-11-03T05:04:25.439Z,23.08
2022-11-03T05:14:37.719Z,22.77
2022-11-03T05:24:39.415Z,28.45
2022-11-03T05:34:43.228Z,26.05
2022-11-03T05:44:45.708Z,26.45
2022-11-03T05:54:47.671Z,27.00
2022-11-03T06:04:54.560Z,30.55
2022-11-03T06:14:56.596Z,29.60
2022-11-03T06:25:12.097Z,32.70
2022-11-03T06:35:14.960Z,34.70
2022-11-03T06:45:24.919Z,29.37
2022-11-03T06:55:31.232Z,20.85
2022-11-03T07:05:33.415Z,24.38
2022-11-03T07:15:40.240Z,17.20
2022-11-03T07:25:41.959Z,20.55
2022-11-03T07:36:13.859Z,20.40
2022-11-03T07:46:17.725Z,21.90
2022-11-03T07:56:21.063Z,22.27
2022-11-03T08:06:23.865Z,23.15
2022-11-03T08:16:25.915Z,36.63
2022-11-03T08:26:27.850Z,34.67
2022-11-03T08:36:30.580Z,39.33
2022-11-03T08:46:33.364Z,37.83
2022-11-03T08:56:35.047Z,39.90
2022-11-03T09:06:37.769Z,37.25
2022-11-03T09:16:40.941Z,44.17
2022-11-03T09:26:42.777Z,39.97
2022-11-03T09:36:48.077Z,42.42
2022-11-03T09:46:58.411Z,43.30
2022-11-03T09:57:12.140Z,41.88
2022-11-03T10:07:14.254Z,46.75
2022-11-03T10:17:21.848Z,43.43
2022-11-03T10:27:25.586Z,41.85
2022-11-03T10:37:28.660Z,40.22
2022-11-03T10:57:38.664Z,39.75
2022-11-03T11:07:43.714Z,44.83
2022-11-03T11:17:46.837Z,46.80
2022-11-03T11:38:37.921Z,48.35
2022-11-03T11:48:40.172Z,49.60
2022-11-03T11:58:48.881Z,52.00
2022-11-03T12:08:51.474Z,46.78
2022-11-03T12:18:54.270Z,49.47
2022-11-03T12:28:57.344Z,57.03
2022-11-03T12:38:59.402Z,62.40
2022-11-03T12:49:05.149Z,60.03
2022-11-03T12:59:13.101Z,56.22
2022-11-03T13:09:14.892Z,51.00
2022-11-03T13:19:18.543Z,48.65
2022-11-03T13:29:23.288Z,52.72
2022-11-03T13:39:24.948Z,44.05
2022-11-03T13:59:49.839Z,42.30
2022-11-03T14:09:54.345Z,38.63
2022-11-03T14:20:03.688Z,37.53
2022-11-03T14:30:06.777Z,31.67
2022-11-03T14:40:30.231Z,36.27
2022-11-03T14:50:32.778Z,35.00
2022-11-03T15:00:35.418Z,49.70
2022-11-03T15:10:39.523Z,42.37
2022-11-03T15:20:42.705Z,41.58
2022-11-03T15:30:50.637Z,36.05
2022-11-03T15:40:53.786Z,44.17
2022-11-03T15:50:55.486Z,38.83
2022-11-03T16:00:57.545Z,44.33
2022-11-03T16:10:59.560Z,52.50
2022-11-03T16:21:11.483Z,51.47
2022-11-03T16:31:14.076Z,63.22
2022-11-03T16:41:16.875Z,74.27
2022-11-03T16:51:20.731Z,74.73
2022-11-03T17:01:23.171Z,84.80
2022-11-03T17:11:36.339Z,78.30
2022-11-03T17:21:40.815Z,71.53
2022-11-03T17:31:49.446Z,72.40
2022-11-03T17:41:51.322Z,72.35
2022-11-03T17:51:54.001Z,65.25
2022-11-03T18:02:00.159Z,78.27
2022-11-03T18:12:20.471Z,75.18
2022-11-03T18:22:22.943Z,75.72
2022-11-03T18:32:24.842Z,76.13
2022-11-03T18:42:26.753Z,68.63
2022-11-03T18:52:29.079Z,69.97
2022-11-03T19:02:34.440Z,70.60
2022-11-03T19:12:39.142Z,71.75
2022-11-03T19:22:47.509Z,74.80
2022-11-03T19:32:53.416Z,69.65
2022-11-03T19:42:59.699Z,72.40
2022-11-03T19:53:03.458Z,68.75
2022-11-03T20:03:05.557Z,63.28
2022-11-03T20:13:12.844Z,59.03
2022-11-03T20:23:25.350Z,62.25
2022-11-03T20:33:30.680Z,61.43
2022-11-03T20:43:42.852Z,54.88
2022-11-03T20:53:48.061Z,53.40
2022-11-03T21:03:59.185Z,48.95
2022-11-03T21:14:08.737Z,46.08
2022-11-03T21:24:12.187Z,49.17
2022-11-03T21:34:15.152Z,51.90
2022-11-03T21:44:17.971Z,50.67
2022-11-03T21:54:19.850Z,44.85
2022-11-03T22:04:23.131Z,49.72
2022-11-03T22:14:50.511Z,44.08
2022-11-03T22:25:10.951Z,40.75
2022-11-03T22:35:30.869Z,42.92
2022-11-03T22:45:51.307Z,36.33
2022-11-03T22:55:53.413Z,41.83
2022-11-03T23:05:59.790Z,42.03
2022-11-03T23:16:10.242Z,39.60
2022-11-03T23:26:14.985Z,38.03
2022-11-03T23:36:17.794Z,40.90
2022-11-03T23:46:50.168Z,37.70
2022-11-03T23:57:11.545Z,38.63
